sensor_id;sensor_type;location;lat;lon;timestamp;temperature;humidity
12460;DHT22;6295;49.452;8.466;2022-07-25T00:02:10;21.80;99.90
12460;DHT22;6295;49.452;8.466;2022-07-25T00:06:12;21.80;99.90
12460;DHT22;6295;49.452;8.466;2022-07-25T00:10:14;21.70;99.90
12460;DHT22;6295;49.452;8.466;2022-07-25T00:14:17;21.70;99.90
12460;DHT22;6295;49.452;8.466;2022-07-25T00:18:20;21.60;99.90
12460;DHT22;6295;49.452;8.466;2022-07-25T00:22:22;21.60;99.90
12460;DHT22;6295;49.452;8.466;2022-07-25T00:26:24;21.50;99.90
12460;DHT22;6295;49.452;8.466;2022-07-25T00:30:26;21.50;99.90
12460;DHT22;6295;49.452;8.466;2022-07-25T00:34:30;21.50;99.90
12460;DHT22;6295;49.452;8.466;2022-07-25T00:38:32;21.40;99.90
12460;DHT22;6295;49.452;8.466;2022-07-25T00:42:34;21.40;99.90
12460;DHT22;6295;49.452;8.466;2022-07-25T00:50:41;21.40;99.90
12460;DHT22;6295;49.452;8.466;2022-07-25T00:54:43;21.30;99.90
12460;DHT22;6295;49.452;8.466;2022-07-25T00:58:45;21.20;99.90
12460;DHT22;6295;49.452;8.466;2022-07-25T01:02:47;21.20;99.90
12460;DHT22;6295;49.452;8.466;2022-07-25T01:10:53;21.10;99.90
12460;DHT22;6295;49.452;8.466;2022-07-25T01:14:56;21.10;99.90
12460;DHT22;6295;49.452;8.466;2022-07-25T01:23:02;21.00;99.90
12460;DHT22;6295;49.452;8.466;2022-07-25T01:27:04;20.90;99.90
12460;DHT22;6295;49.452;8.466;2022-07-25T01:31:06;20.90;99.90
12460;DHT22;6295;49.452;8.466;2022-07-25T01:39:13;20.80;99.90
12460;DHT22;6295;49.452;8.466;2022-07-25T01:43:16;20.80;99.90
12460;DHT22;6295;49.452;8.466;2022-07-25T01:47:18;20.70;99.90
12460;DHT22;6295;49.452;8.466;2022-07-25T01:51:21;20.70;99.90
12460;DHT22;6295;49.452;8.466;2022-07-25T01:59:27;20.60;99.90
12460;DHT22;6295;49.452;8.466;2022-07-25T02:03:29;20.60;99.90
12460;DHT22;6295;49.452;8.466;2022-07-25T02:07:32;20.60;99.90
12460;DHT22;6295;49.452;8.466;2022-07-25T02:11:35;20.50;99.90
12460;DHT22;6295;49.452;8.466;2022-07-25T02:19:40;20.40;99.90
12460;DHT22;6295;49.452;8.466;2022-07-25T02:23:43;20.40;99.90
12460;DHT22;6295;49.452;8.466;2022-07-25T02:31:49;20.30;99.90
12460;DHT22;6295;49.452;8.466;2022-07-25T02:35:52;20.30;99.90
12460;DHT22;6295;49.452;8.466;2022-07-25T02:39:55;20.30;99.90
12460;DHT22;6295;49.452;8.466;2022-07-25T02:43:58;20.20;99.90
12460;DHT22;6295;49.452;8.466;2022-07-25T02:52:03;20.10;99.90
12460;DHT22;6295;49.452;8.466;2022-07-25T03:00:10;20.10;99.90
12460;DHT22;6295;49.452;8.466;2022-07-25T03:08:15;20.00;99.90
12460;DHT22;6295;49.452;8.466;2022-07-25T03:12:17;20.00;99.90
12460;DHT22;6295;49.452;8.466;2022-07-25T03:16:21;19.90;99.90
12460;DHT22;6295;49.452;8.466;2022-07-25T03:20:23;19.90;99.90
12460;DHT22;6295;49.452;8.466;2022-07-25T03:28:28;19.80;99.90
12460;DHT22;6295;49.452;8.466;2022-07-25T03:36:34;19.80;99.90
12460;DHT22;6295;49.452;8.466;2022-07-25T03:40:36;19.80;99.90
12460;DHT22;6295;49.452;8.466;2022-07-25T03:44:38;19.70;99.90
12460;DHT22;6295;49.452;8.466;2022-07-25T03:52:44;19.70;99.90
12460;DHT22;6295;49.452;8.466;2022-07-25T03:56:48;19.70;99.90
12460;DHT22;6295;49.452;8.466;2022-07-25T04:00:50;19.70;99.90
12460;DHT22;6295;49.452;8.466;2022-07-25T04:04:53;19.60;99.90
12460;DHT22;6295;49.452;8.466;2022-07-25T04:12:58;19.60;99.90
12460;DHT22;6295;49.452;8.466;2022-07-25T04:17:00;19.60;99.90
12460;DHT22;6295;49.452;8.466;2022-07-25T04:21:04;19.60;99.90
12460;DHT22;6295;49.452;8.466;2022-07-25T04:25:07;19.60;99.90
12460;DHT22;6295;49.452;8.466;2022-07-25T04:33:12;19.60;99.90
12460;DHT22;6295;49.452;8.466;2022-07-25T04:37:16;19.70;99.90
12460;DHT22;6295;49.452;8.466;2022-07-25T04:41:18;19.60;99.90
12460;DHT22;6295;49.452;8.466;2022-07-25T04:49:23;19.70;99.90
12460;DHT22;6295;49.452;8.466;2022-07-25T04:53:26;19.70;99.90
12460;DHT22;6295;49.452;8.466;2022-07-25T05:01:31;19.90;99.90
12460;DHT22;6295;49.452;8.466;2022-07-25T05:09:37;20.00;99.90
12460;DHT22;6295;49.452;8.466;2022-07-25T05:13:39;20.10;99.90
12460;DHT22;6295;49.452;8.466;2022-07-25T05:17:41;20.10;99.90
12460;DHT22;6295;49.452;8.466;2022-07-25T05:21:44;20.30;99.90
12460;DHT22;6295;49.452;8.466;2022-07-25T05:25:47;20.30;99.90
12460;DHT22;6295;49.452;8.466;2022-07-25T05:29:49;20.50;99.90
12460;DHT22;6295;49.452;8.466;2022-07-25T05:33:51;20.70;99.90
12460;DHT22;6295;49.452;8.466;2022-07-25T05:41:57;21.10;99.90
12460;DHT22;6295;49.452;8.466;2022-07-25T05:46:00;21.30;99.90
12460;DHT22;6295;49.452;8.466;2022-07-25T05:50:03;21.50;99.90
12460;DHT22;6295;49.452;8.466;2022-07-25T05:58:09;21.90;99.90
12460;DHT22;6295;49.452;8.466;2022-07-25T06:02:11;22.10;99.90
12460;DHT22;6295;49.452;8.466;2022-07-25T06:06:13;22.20;99.90
12460;DHT22;6295;49.452;8.466;2022-07-25T06:10:15;22.40;99.90
12460;DHT22;6295;49.452;8.466;2022-07-25T06:14:20;22.50;99.90
12460;DHT22;6295;49.452;8.466;2022-07-25T06:18:22;22.70;99.90
12460;DHT22;6295;49.452;8.466;2022-07-25T06:22:24;22.80;99.90
12460;DHT22;6295;49.452;8.466;2022-07-25T06:26:26;22.90;99.90
12460;DHT22;6295;49.452;8.466;2022-07-25T06:30:30;23.20;99.90
12460;DHT22;6295;49.452;8.466;2022-07-25T06:34:32;23.30;99.90
12460;DHT22;6295;49.452;8.466;2022-07-25T06:38:34;23.40;99.90
12460;DHT22;6295;49.452;8.466;2022-07-25T06:46:41;23.70;99.90
12460;DHT22;6295;49.452;8.466;2022-07-25T06:50:43;23.80;99.90
12460;DHT22;6295;49.452;8.466;2022-07-25T06:54:47;23.90;99.90
12460;DHT22;6295;49.452;8.466;2022-07-25T07:02:55;24.10;99.90
12460;DHT22;6295;49.452;8.466;2022-07-25T07:06:58;24.20;99.90
12460;DHT22;6295;49.452;8.466;2022-07-25T07:11:00;24.40;99.90
12460;DHT22;6295;49.452;8.466;2022-07-25T07:15:02;24.40;99.90
12460;DHT22;6295;49.452;8.466;2022-07-25T07:19:06;24.60;99.90
12460;DHT22;6295;49.452;8.466;2022-07-25T07:23:10;24.80;99.90
12460;DHT22;6295;49.452;8.466;2022-07-25T07:27:12;24.90;99.90
12460;DHT22;6295;49.452;8.466;2022-07-25T07:31:15;25.00;99.90
12460;DHT22;6295;49.452;8.466;2022-07-25T07:35:18;25.10;99.90
12460;DHT22;6295;49.452;8.466;2022-07-25T07:39:21;25.30;99.90
12460;DHT22;6295;49.452;8.466;2022-07-25T07:43:23;25.50;99.90
12460;DHT22;6295;49.452;8.466;2022-07-25T07:47:26;25.60;99.90
12460;DHT22;6295;49.452;8.466;2022-07-25T07:51:30;25.80;99.90
12460;DHT22;6295;49.452;8.466;2022-07-25T07:55:32;25.90;99.90
12460;DHT22;6295;49.452;8.466;2022-07-25T07:59:48;26.10;99.90
12460;DHT22;6295;49.452;8.466;2022-07-25T08:03:50;26.20;99.90
12460;DHT22;6295;49.452;8.466;2022-07-25T08:07:54;26.30;99.90
12460;DHT22;6295;49.452;8.466;2022-07-25T08:11:57;26.50;99.90
12460;DHT22;6295;49.452;8.466;2022-07-25T08:16:00;26.70;99.90
12460;DHT22;6295;49.452;8.466;2022-07-25T08:20:03;26.70;99.90
12460;DHT22;6295;49.452;8.466;2022-07-25T08:24:11;26.80;99.90
12460;DHT22;6295;49.452;8.466;2022-07-25T08:28:14;27.00;99.90
12460;DHT22;6295;49.452;8.466;2022-07-25T08:32:16;27.20;99.90
12460;DHT22;6295;49.452;8.466;2022-07-25T08:40:24;27.50;99.90
12460;DHT22;6295;49.452;8.466;2022-07-25T08:44:30;27.60;99.90
12460;DHT22;6295;49.452;8.466;2022-07-25T08:48:34;27.70;99.90
12460;DHT22;6295;49.452;8.466;2022-07-25T08:52:37;27.90;99.90
12460;DHT22;6295;49.452;8.466;2022-07-25T08:56:41;28.00;99.90
12460;DHT22;6295;49.452;8.466;2022-07-25T09:00:43;28.20;99.90
12460;DHT22;6295;49.452;8.466;2022-07-25T09:04:45;28.40;99.90
12460;DHT22;6295;49.452;8.466;2022-07-25T09:12:59;28.70;99.90
12460;DHT22;6295;49.452;8.466;2022-07-25T09:17:05;28.90;99.90
12460;DHT22;6295;49.452;8.466;2022-07-25T09:21:12;29.00;99.90
12460;DHT22;6295;49.452;8.466;2022-07-25T09:25:20;29.20;99.90
12460;DHT22;6295;49.452;8.466;2022-07-25T09:29:25;29.30;99.90
12460;DHT22;6295;49.452;8.466;2022-07-25T09:33:28;29.40;99.90
12460;DHT22;6295;49.452;8.466;2022-07-25T09:37:31;29.60;99.90
12460;DHT22;6295;49.452;8.466;2022-07-25T09:41:35;29.80;99.90
12460;DHT22;6295;49.452;8.466;2022-07-25T09:45:48;30.00;99.90
12460;DHT22;6295;49.452;8.466;2022-07-25T09:49:50;30.10;99.90
12460;DHT22;6295;49.452;8.466;2022-07-25T09:53:53;30.20;99.90
12460;DHT22;6295;49.452;8.466;2022-07-25T09:57:55;30.50;99.90
12460;DHT22;6295;49.452;8.466;2022-07-25T10:02:05;30.50;99.90
12460;DHT22;6295;49.452;8.466;2022-07-25T10:06:15;30.60;99.80
12460;DHT22;6295;49.452;8.466;2022-07-25T10:10:23;30.60;99.90
12460;DHT22;6295;49.452;8.466;2022-07-25T10:14:25;30.60;99.80
12460;DHT22;6295;49.452;8.466;2022-07-25T10:18:29;30.50;99.40
12460;DHT22;6295;49.452;8.466;2022-07-25T10:22:37;30.50;99.30
12460;DHT22;6295;49.452;8.466;2022-07-25T10:26:50;30.40;99.20
12460;DHT22;6295;49.452;8.466;2022-07-25T10:30:56;30.40;99.90
12460;DHT22;6295;49.452;8.466;2022-07-25T10:35:11;30.30;99.80
12460;DHT22;6295;49.452;8.466;2022-07-25T10:39:16;30.30;99.90
12460;DHT22;6295;49.452;8.466;2022-07-25T10:43:21;30.30;99.90
12460;DHT22;6295;49.452;8.466;2022-07-25T10:47:26;30.40;99.90
12460;DHT22;6295;49.452;8.466;2022-07-25T10:51:31;30.50;99.90
12460;DHT22;6295;49.452;8.466;2022-07-25T10:55:34;30.60;99.40
12460;DHT22;6295;49.452;8.466;2022-07-25T10:59:38;30.70;98.80
12460;DHT22;6295;49.452;8.466;2022-07-25T11:03:41;30.90;98.60
12460;DHT22;6295;49.452;8.466;2022-07-25T11:07:50;30.90;98.70
12460;DHT22;6295;49.452;8.466;2022-07-25T11:11:54;31.10;97.90
12460;DHT22;6295;49.452;8.466;2022-07-25T11:15:57;31.20;96.60
12460;DHT22;6295;49.452;8.466;2022-07-25T11:20:00;31.30;96.30
12460;DHT22;6295;49.452;8.466;2022-07-25T11:24:04;31.20;96.80
12460;DHT22;6295;49.452;8.466;2022-07-25T11:28:07;31.20;97.30
12460;DHT22;6295;49.452;8.466;2022-07-25T11:32:10;31.20;97.50
12460;DHT22;6295;49.452;8.466;2022-07-25T11:36:14;31.20;97.20
12460;DHT22;6295;49.452;8.466;2022-07-25T11:40:18;31.30;96.60
12460;DHT22;6295;49.452;8.466;2022-07-25T11:44:30;31.40;96.30
12460;DHT22;6295;49.452;8.466;2022-07-25T11:48:33;31.60;95.70
12460;DHT22;6295;49.452;8.466;2022-07-25T11:52:37;31.70;95.50
12460;DHT22;6295;49.452;8.466;2022-07-25T11:56:40;31.90;94.90
12460;DHT22;6295;49.452;8.466;2022-07-25T12:00:46;31.90;94.90
12460;DHT22;6295;49.452;8.466;2022-07-25T12:04:53;32.10;94.70
12460;DHT22;6295;49.452;8.466;2022-07-25T12:08:55;32.20;95.00
12460;DHT22;6295;49.452;8.466;2022-07-25T12:12:59;32.20;94.10
12460;DHT22;6295;49.452;8.466;2022-07-25T12:17:03;32.30;94.50
12460;DHT22;6295;49.452;8.466;2022-07-25T12:21:05;32.30;94.70
12460;DHT22;6295;49.452;8.466;2022-07-25T12:25:08;32.40;94.40
12460;DHT22;6295;49.452;8.466;2022-07-25T12:29:12;32.40;94.50
12460;DHT22;6295;49.452;8.466;2022-07-25T12:33:14;32.40;94.90
12460;DHT22;6295;49.452;8.466;2022-07-25T12:37:16;32.50;94.60
12460;DHT22;6295;49.452;8.466;2022-07-25T12:41:21;32.60;94.30
12460;DHT22;6295;49.452;8.466;2022-07-25T12:45:25;32.50;94.40
12460;DHT22;6295;49.452;8.466;2022-07-25T12:49:29;32.40;90.20
12460;DHT22;6295;49.452;8.466;2022-07-25T12:53:33;32.50;88.10
12460;DHT22;6295;49.452;8.466;2022-07-25T13:01:42;32.60;81.20
12460;DHT22;6295;49.452;8.466;2022-07-25T13:09:47;32.40;82.40
12460;DHT22;6295;49.452;8.466;2022-07-25T13:13:49;32.30;83.20
12460;DHT22;6295;49.452;8.466;2022-07-25T13:17:53;32.20;84.10
12460;DHT22;6295;49.452;8.466;2022-07-25T13:21:55;32.10;83.70
12460;DHT22;6295;49.452;8.466;2022-07-25T13:25:57;32.00;83.00
12460;DHT22;6295;49.452;8.466;2022-07-25T13:30:01;31.90;84.40
12460;DHT22;6295;49.452;8.466;2022-07-25T13:34:05;31.80;83.00
12460;DHT22;6295;49.452;8.466;2022-07-25T13:38:08;31.80;83.70
12460;DHT22;6295;49.452;8.466;2022-07-25T13:42:11;31.80;83.00
12460;DHT22;6295;49.452;8.466;2022-07-25T13:46:13;31.60;83.40
12460;DHT22;6295;49.452;8.466;2022-07-25T13:50:16;31.60;81.70
12460;DHT22;6295;49.452;8.466;2022-07-25T13:54:18;31.50;82.90
12460;DHT22;6295;49.452;8.466;2022-07-25T13:58:21;31.40;83.00
12460;DHT22;6295;49.452;8.466;2022-07-25T14:02:23;31.30;84.20
12460;DHT22;6295;49.452;8.466;2022-07-25T14:06:26;31.30;86.10
12460;DHT22;6295;49.452;8.466;2022-07-25T14:10:28;31.00;94.00
12460;DHT22;6295;49.452;8.466;2022-07-25T14:14:30;30.50;97.10
12460;DHT22;6295;49.452;8.466;2022-07-25T14:18:32;30.10;99.80
12460;DHT22;6295;49.452;8.466;2022-07-25T14:22:36;29.80;99.90
12460;DHT22;6295;49.452;8.466;2022-07-25T14:26:39;29.80;99.90
12460;DHT22;6295;49.452;8.466;2022-07-25T14:30:41;29.80;99.90
12460;DHT22;6295;49.452;8.466;2022-07-25T14:34:43;29.90;99.90
12460;DHT22;6295;49.452;8.466;2022-07-25T14:38:48;30.00;99.90
12460;DHT22;6295;49.452;8.466;2022-07-25T14:42:52;30.10;99.90
12460;DHT22;6295;49.452;8.466;2022-07-25T14:46:54;30.20;99.90
12460;DHT22;6295;49.452;8.466;2022-07-25T14:50:57;30.40;99.90
12460;DHT22;6295;49.452;8.466;2022-07-25T14:55:02;30.60;99.90
12460;DHT22;6295;49.452;8.466;2022-07-25T14:59:05;30.70;99.90
12460;DHT22;6295;49.452;8.466;2022-07-25T15:03:09;30.70;99.90
12460;DHT22;6295;49.452;8.466;2022-07-25T15:07:11;30.90;99.90
12460;DHT22;6295;49.452;8.466;2022-07-25T15:11:15;31.00;99.90
12460;DHT22;6295;49.452;8.466;2022-07-25T15:19:20;31.40;99.10
12460;DHT22;6295;49.452;8.466;2022-07-25T15:23:22;31.50;97.80
12460;DHT22;6295;49.452;8.466;2022-07-25T15:27:25;31.70;97.80
12460;DHT22;6295;49.452;8.466;2022-07-25T15:31:27;31.80;96.10
12460;DHT22;6295;49.452;8.466;2022-07-25T15:39:33;31.90;93.60
12460;DHT22;6295;49.452;8.466;2022-07-25T15:43:36;31.90;93.90
12460;DHT22;6295;49.452;8.466;2022-07-25T15:47:38;31.90;93.50
12460;DHT22;6295;49.452;8.466;2022-07-25T15:55:45;31.70;93.20
12460;DHT22;6295;49.452;8.466;2022-07-25T16:07:54;31.50;90.80
12460;DHT22;6295;49.452;8.466;2022-07-25T16:11:57;31.40;90.90
12460;DHT22;6295;49.452;8.466;2022-07-25T16:32:15;31.90;85.40
12460;DHT22;6295;49.452;8.466;2022-07-25T16:36:18;31.90;85.10
12460;DHT22;6295;49.452;8.466;2022-07-25T16:40:20;31.90;82.10
12460;DHT22;6295;49.452;8.466;2022-07-25T16:56:32;30.90;82.80
12460;DHT22;6295;49.452;8.466;2022-07-25T17:04:40;30.60;83.80
12460;DHT22;6295;49.452;8.466;2022-07-25T17:08:42;30.40;81.70
12460;DHT22;6295;49.452;8.466;2022-07-25T17:12:44;30.30;81.40
12460;DHT22;6295;49.452;8.466;2022-07-25T17:16:46;30.20;81.70
12460;DHT22;6295;49.452;8.466;2022-07-25T17:20:50;30.20;78.70
12460;DHT22;6295;49.452;8.466;2022-07-25T17:24:54;30.10;77.60
12460;DHT22;6295;49.452;8.466;2022-07-25T17:28:57;30.00;76.40
12460;DHT22;6295;49.452;8.466;2022-07-25T17:32:59;29.80;74.50
12460;DHT22;6295;49.452;8.466;2022-07-25T17:37:04;29.70;74.90
12460;DHT22;6295;49.452;8.466;2022-07-25T17:41:06;29.50;74.70
12460;DHT22;6295;49.452;8.466;2022-07-25T17:45:09;29.40;75.10
12460;DHT22;6295;49.452;8.466;2022-07-25T17:49:11;29.30;75.70
12460;DHT22;6295;49.452;8.466;2022-07-25T17:57:18;29.10;78.80
12460;DHT22;6295;49.452;8.466;2022-07-25T18:01:20;29.00;79.40
12460;DHT22;6295;49.452;8.466;2022-07-25T18:05:22;28.90;79.60
12460;DHT22;6295;49.452;8.466;2022-07-25T18:09:26;28.70;79.30
12460;DHT22;6295;49.452;8.466;2022-07-25T18:13:28;28.70;79.70
12460;DHT22;6295;49.452;8.466;2022-07-25T18:21:32;28.50;78.70
12460;DHT22;6295;49.452;8.466;2022-07-25T18:25:36;28.50;76.70
12460;DHT22;6295;49.452;8.466;2022-07-25T18:29:38;28.50;76.90
12460;DHT22;6295;49.452;8.466;2022-07-25T18:37:42;28.50;77.40
12460;DHT22;6295;49.452;8.466;2022-07-25T18:41:46;28.50;78.20
12460;DHT22;6295;49.452;8.466;2022-07-25T18:45:48;28.40;78.00
12460;DHT22;6295;49.452;8.466;2022-07-25T18:49:50;28.30;78.60
12460;DHT22;6295;49.452;8.466;2022-07-25T18:57:57;28.00;80.50
12460;DHT22;6295;49.452;8.466;2022-07-25T19:06:03;27.80;79.00
12460;DHT22;6295;49.452;8.466;2022-07-25T19:10:05;27.60;78.60
12460;DHT22;6295;49.452;8.466;2022-07-25T19:14:09;27.50;79.70
12460;DHT22;6295;49.452;8.466;2022-07-25T19:18:11;27.50;79.50
12460;DHT22;6295;49.452;8.466;2022-07-25T19:26:16;27.30;79.90
12460;DHT22;6295;49.452;8.466;2022-07-25T19:30:19;27.10;80.30
12460;DHT22;6295;49.452;8.466;2022-07-25T19:34:21;27.10;80.80
12460;DHT22;6295;49.452;8.466;2022-07-25T19:38:23;27.00;81.30
12460;DHT22;6295;49.452;8.466;2022-07-25T19:42:26;26.90;81.60
12460;DHT22;6295;49.452;8.466;2022-07-25T19:46:29;26.80;82.30
12460;DHT22;6295;49.452;8.466;2022-07-25T19:50:33;26.70;82.50
12460;DHT22;6295;49.452;8.466;2022-07-25T19:54:36;26.70;83.20
12460;DHT22;6295;49.452;8.466;2022-07-25T19:58:38;26.60;83.70
12460;DHT22;6295;49.452;8.466;2022-07-25T20:02:42;26.60;84.40
12460;DHT22;6295;49.452;8.466;2022-07-25T20:06:44;26.40;84.50
12460;DHT22;6295;49.452;8.466;2022-07-25T20:10:46;26.30;84.80
12460;DHT22;6295;49.452;8.466;2022-07-25T20:14:48;26.30;85.00
12460;DHT22;6295;49.452;8.466;2022-07-25T20:18:52;26.20;85.50
12460;DHT22;6295;49.452;8.466;2022-07-25T20:22:54;26.20;85.70
12460;DHT22;6295;49.452;8.466;2022-07-25T20:26:57;26.10;86.10
12460;DHT22;6295;49.452;8.466;2022-07-25T20:30:59;26.10;86.60
12460;DHT22;6295;49.452;8.466;2022-07-25T20:35:03;26.00;86.50
12460;DHT22;6295;49.452;8.466;2022-07-25T20:39:07;25.90;86.50
12460;DHT22;6295;49.452;8.466;2022-07-25T20:43:09;25.90;87.10
12460;DHT22;6295;49.452;8.466;2022-07-25T20:47:11;25.90;86.70
12460;DHT22;6295;49.452;8.466;2022-07-25T20:51:17;25.70;87.30
12460;DHT22;6295;49.452;8.466;2022-07-25T20:55:19;25.70;87.80
12460;DHT22;6295;49.452;8.466;2022-07-25T20:59:24;25.70;87.70
12460;DHT22;6295;49.452;8.466;2022-07-25T21:07:30;25.60;88.20
12460;DHT22;6295;49.452;8.466;2022-07-25T21:11:33;25.50;88.60
12460;DHT22;6295;49.452;8.466;2022-07-25T21:19:37;25.40;89.00
12460;DHT22;6295;49.452;8.466;2022-07-25T21:23:41;25.40;89.30
12460;DHT22;6295;49.452;8.466;2022-07-25T21:27:43;25.30;89.60
12460;DHT22;6295;49.452;8.466;2022-07-25T21:31:45;25.30;89.80
12460;DHT22;6295;49.452;8.466;2022-07-25T21:39:51;25.20;90.20
12460;DHT22;6295;49.452;8.466;2022-07-25T21:43:53;25.10;90.40
12460;DHT22;6295;49.452;8.466;2022-07-25T21:47:55;25.10;90.60
12460;DHT22;6295;49.452;8.466;2022-07-25T21:51:57;25.10;90.70
12460;DHT22;6295;49.452;8.466;2022-07-25T21:56:00;25.00;90.90
12460;DHT22;6295;49.452;8.466;2022-07-25T22:04:06;24.90;91.00
12460;DHT22;6295;49.452;8.466;2022-07-25T22:08:08;24.90;91.20
12460;DHT22;6295;49.452;8.466;2022-07-25T22:12:12;24.90;91.40
12460;DHT22;6295;49.452;8.466;2022-07-25T22:16:15;24.80;91.50
12460;DHT22;6295;49.452;8.466;2022-07-25T22:28:24;24.70;92.80
12460;DHT22;6295;49.452;8.466;2022-07-25T22:32:26;24.70;93.10
12460;DHT22;6295;49.452;8.466;2022-07-25T22:36:28;24.60;93.00
12460;DHT22;6295;49.452;8.466;2022-07-25T22:40:30;24.60;93.00
12460;DHT22;6295;49.452;8.466;2022-07-25T22:44:33;24.60;93.10
12460;DHT22;6295;49.452;8.466;2022-07-25T22:48:36;24.60;93.30
12460;DHT22;6295;49.452;8.466;2022-07-25T22:52:38;24.70;93.50
12460;DHT22;6295;49.452;8.466;2022-07-25T23:13:38;24.70;93.40
12460;DHT22;6295;49.452;8.466;2022-07-25T23:17:40;24.60;93.50
12460;DHT22;6295;49.452;8.466;2022-07-25T23:21:43;24.50;93.60
12460;DHT22;6295;49.452;8.466;2022-07-25T23:25:45;24.50;93.80
12460;DHT22;6295;49.452;8.466;2022-07-25T23:29:48;24.50;93.90
12460;DHT22;6295;49.452;8.466;2022-07-25T23:38:29;24.40;95.60
12460;DHT22;6295;49.452;8.466;2022-07-25T23:42:31;24.40;96.10
12460;DHT22;6295;49.452;8.466;2022-07-25T23:46:34;24.30;96.60
12460;DHT22;6295;49.452;8.466;2022-07-25T23:50:37;24.20;97.40
12460;DHT22;6295;49.452;8.466;2022-07-25T23:58:42;24.00;98.50
